Time;durP1;ratioP1;P1;durP2;ratioP2;P2;SDS_P1;SDS_P2;PMS_P1;PMS_P2;Temp;Humidity;BMP_temperature;BMP_pressure;BME280_temperature;BME280_humidity;BME280_pressure;Samples;Min_cycle;Max_cycle;Signal;HPM_P1;HPM_P2
2024/01/01 00:00:23;;;;;;;;;9.67;6.67;;;;;-144.62;100.00;60556.56;5040656;28;45435;-73
2024/01/01 00:02:48;;;;;;;;;7.00;6.67;;;;;-144.62;100.00;60556.56;5036324;28;45361;-73
2024/01/01 00:05:14;;;;;;;;;17.33;16.00;;;;;-144.62;100.00;60556.56;5040728;28;45431;-74
2024/01/01 00:07:39;;;;;;;;;54.50;42.25;;;;;-144.62;100.00;60556.56;5034427;27;45341;-74
2024/01/01 00:10:05;;;;;;;;;31.00;26.33;;;;;-144.62;100.00;60556.56;5038873;28;53915;-74
2024/01/01 00:12:32;;;;;;;;;22.00;19.33;;;;;-144.62;100.00;60556.56;5038083;28;45356;-74
2024/01/01 00:14:58;;;;;;;;;13.67;12.33;;;;;-144.62;100.00;60556.56;5040554;28;45323;-74
2024/01/01 00:17:23;;;;;;;;;20.33;16.33;;;;;-144.62;100.00;60556.56;5038284;28;45341;-74
2024/01/01 00:19:48;;;;;;;;;18.00;15.00;;;;;-144.62;100.00;60556.56;5049908;27;64103;-74
2024/01/01 00:22:14;;;;;;;;;12.00;7.00;;;;;-144.62;100.00;60556.56;5038141;28;45332;-74
2024/01/01 00:24:39;;;;;;;;;9.00;6.33;;;;;-144.62;100.00;60556.56;5040499;28;45297;-75
2024/01/01 00:27:05;;;;;;;;;10.00;6.33;;;;;-144.62;100.00;60556.56;5038698;27;45345;-74
2024/01/01 00:29:30;;;;;;;;;4.67;3.00;;;;;-144.62;100.00;60556.56;5039609;28;46004;-74
2024/01/01 00:31:55;;;;;;;;;9.67;3.67;;;;;-144.62;100.00;60556.56;5038173;28;45186;-74
2024/01/01 00:34:21;;;;;;;;;4.67;3.00;;;;;-144.62;100.00;60556.56;5036875;28;45284;-75
2024/01/01 00:36:48;;;;;;;;;5.33;3.00;;;;;-144.62;100.00;60556.56;5038858;27;47512;-74
2024/01/01 00:39:13;;;;;;;;;7.67;6.00;;;;;-144.62;100.00;60556.56;5038030;28;45379;-74
2024/01/01 00:41:38;;;;;;;;;4.00;4.00;;;;;-144.62;100.00;60556.56;5037092;28;45492;-74
2024/01/01 00:44:04;;;;;;;;;2.67;2.67;;;;;-144.62;100.00;60556.56;5035029;28;45363;-74
2024/01/01 00:46:30;;;;;;;;;5.33;5.33;;;;;-144.62;100.00;60556.56;5038984;28;45369;-74
2024/01/01 00:48:55;;;;;;;;;4.67;2.33;;;;;-144.62;100.00;60556.56;5035573;28;46031;-73
2024/01/01 00:51:21;;;;;;;;;6.00;3.00;;;;;-144.62;100.00;60556.56;5040087;28;45386;-74
2024/01/01 00:53:46;;;;;;;;;7.67;3.33;;;;;-144.62;100.00;60556.56;5034338;28;45450;-73
2024/01/01 00:56:12;;;;;;;;;8.67;5.33;;;;;-144.62;100.00;60556.56;5040526;28;45369;-74
2024/01/01 00:58:37;;;;;;;;;7.00;2.33;;;;;-144.62;100.00;60556.56;5033912;28;46307;-74
2024/01/01 01:01:03;;;;;;;;;2.00;1.00;;;;;-144.62;100.00;60556.56;5038556;27;45438;-74
2024/01/01 01:03:29;;;;;;;;;5.33;3.00;;;;;-144.62;100.00;60556.56;5034143;28;45312;-74
2024/01/01 01:05:55;;;;;;;;;4.67;3.33;;;;;-144.62;100.00;60556.56;5037478;28;45469;-74
2024/01/01 01:08:20;;;;;;;;;9.00;6.00;;;;;-144.62;100.00;60556.56;5036262;27;46293;-74
2024/01/01 01:10:46;;;;;;;;;6.67;4.00;;;;;-144.62;100.00;60556.56;5038507;28;45638;-74
2024/01/01 01:13:11;;;;;;;;;4.00;3.00;;;;;-144.62;100.00;60556.56;5038040;28;45395;-74
2024/01/01 01:15:37;;;;;;;;;3.00;3.00;;;;;-144.62;100.00;60556.56;5035159;28;45406;-74
2024/01/01 01:18:02;;;;;;;;;8.00;6.00;;;;;-144.62;100.00;60556.56;5036763;28;45379;-74
2024/01/01 01:20:28;;;;;;;;;3.00;1.33;;;;;-144.62;100.00;60556.56;5040053;27;45453;-74
2024/01/01 01:22:53;;;;;;;;;10.33;4.67;;;;;-144.62;100.00;60556.56;5036195;28;51121;-74
2024/01/01 01:25:18;;;;;;;;;3.00;3.00;;;;;-144.62;100.00;60556.56;5036708;28;45499;-74
2024/01/01 01:27:45;;;;;;;;;3.00;2.67;;;;;-144.62;100.00;60556.56;5035526;28;45444;-74
2024/01/01 01:30:11;;;;;;;;;4.00;2.67;;;;;-144.62;100.00;60556.56;5039301;27;45322;-74
2024/01/01 01:32:36;;;;;;;;;7.33;6.67;;;;;-144.62;100.00;60556.56;5037144;28;45505;-74
2024/01/01 01:35:02;;;;;;;;;10.33;3.67;;;;;-144.62;100.00;60556.56;5036357;28;45319;-74
2024/01/01 01:37:27;;;;;;;;;9.67;5.33;;;;;-144.62;100.00;60556.56;5033869;28;47703;-74
2024/01/01 01:39:53;;;;;;;;;7.67;3.00;;;;;-144.62;100.00;60556.56;5038625;28;45442;-75
2024/01/01 01:42:18;;;;;;;;;10.67;3.67;;;;;-144.62;100.00;60556.56;5036702;28;45328;-74
2024/01/01 01:44:43;;;;;;;;;12.33;7.00;;;;;-144.62;100.00;60556.56;5036369;28;45743;-74
2024/01/01 01:47:09;;;;;;;;;7.33;3.00;;;;;-144.62;100.00;60556.56;5035635;28;45468;-74
2024/01/01 01:49:35;;;;;;;;;6.00;2.00;;;;;-144.62;100.00;60556.56;5036100;28;45416;-74
2024/01/01 01:52:03;;;;;;;;;6.67;2.67;;;;;-144.62;100.00;60556.56;5036383;28;45441;-74
2024/01/01 01:54:31;;;;;;;;;8.00;4.00;;;;;-144.62;100.00;60556.56;5037992;28;45424;-74
2024/01/01 01:56:56;;;;;;;;;8.33;6.00;;;;;-144.62;100.00;60556.56;5026517;28;46318;-74
2024/01/01 01:59:22;;;;;;;;;4.00;2.67;;;;;-144.62;100.00;60556.56;5034089;28;45250;-74
2024/01/01 02:01:48;;;;;;;;;4.00;2.00;;;;;-144.62;100.00;60556.56;5034842;28;45424;-73
2024/01/01 02:04:14;;;;;;;;;12.33;4.00;;;;;-144.62;100.00;60556.56;5036082;27;45711;-74
2024/01/01 02:06:39;;;;;;;;;2.00;2.00;;;;;-144.62;100.00;60556.56;5037670;28;46225;-74
2024/01/01 02:09:06;;;;;;;;;11.33;4.00;;;;;-144.62;100.00;60556.56;5037682;27;45461;-74
2024/01/01 02:11:31;;;;;;;;;7.00;6.00;;;;;-144.62;100.00;60556.56;5037098;28;45472;-73
2024/01/01 02:14:11;;;;;;;;;7.67;3.67;;;;;-144.62;100.00;60556.56;5037506;28;45395;-75
2024/01/01 02:16:36;;;;;;;;;5.00;3.67;;;;;-144.62;100.00;60556.56;5024603;28;45432;-75
2024/01/01 02:19:03;;;;;;;;;6.00;3.00;;;;;-144.62;100.00;60556.56;5037721;28;45545;-74
2024/01/01 02:21:30;;;;;;;;;8.00;4.67;;;;;-144.62;100.00;60556.56;5037082;28;45323;-75
2024/01/01 02:23:55;;;;;;;;;4.00;2.33;;;;;-144.62;100.00;60556.56;5036721;28;45341;-75
2024/01/01 02:26:21;;;;;;;;;6.00;3.00;;;;;-144.62;100.00;60556.56;5036569;28;47834;-74
2024/01/01 02:28:46;;;;;;;;;10.33;4.67;;;;;-144.62;100.00;60556.56;5037961;28;45382;-74
2024/01/01 02:31:11;;;;;;;;;13.67;3.00;;;;;-144.62;100.00;60556.56;5028810;28;45781;-74
2024/01/01 02:33:37;;;;;;;;;10.33;5.33;;;;;-144.62;100.00;60556.56;5036459;28;45423;-74
2024/01/01 02:36:02;;;;;;;;;7.00;3.00;;;;;-144.62;100.00;60556.56;5030660;28;47976;-74
2024/01/01 02:38:28;;;;;;;;;9.33;3.33;;;;;-144.62;100.00;60556.56;5033339;28;45266;-73
2024/01/01 02:40:53;;;;;;;;;5.33;2.33;;;;;-144.62;100.00;60556.56;5040675;28;45551;-73
2024/01/01 02:43:18;;;;;;;;;6.33;3.67;;;;;-144.62;100.00;60556.56;5036564;28;45577;-74
2024/01/01 02:45:44;;;;;;;;;4.33;1.67;;;;;-144.62;100.00;60556.56;5040684;27;50009;-74
2024/01/01 02:48:09;;;;;;;;;5.67;3.67;;;;;-144.62;100.00;60556.56;5035329;27;45422;-74
2024/01/01 02:50:36;;;;;;;;;5.67;3.33;;;;;-144.62;100.00;60556.56;5034547;28;53898;-74
2024/01/01 02:53:01;;;;;;;;;6.67;3.67;;;;;-144.62;100.00;60556.56;5031752;27;45389;-74
2024/01/01 02:55:26;;;;;;;;;9.00;3.67;;;;;-144.62;100.00;60556.56;5041505;27;45329;-74
2024/01/01 02:57:51;;;;;;;;;7.00;6.33;;;;;-144.62;100.00;60556.56;5034471;28;54280;-74
2024/01/01 03:00:17;;;;;;;;;5.33;3.00;;;;;-144.62;100.00;60556.56;5041319;28;45367;-74
2024/01/01 03:02:43;;;;;;;;;7.67;3.67;;;;;-144.62;100.00;60556.56;5037912;28;45427;-74
2024/01/01 03:05:09;;;;;;;;;3.33;3.33;;;;;-144.62;100.00;60556.56;5040984;28;45380;-73
2024/01/01 03:07:34;;;;;;;;;4.67;2.67;;;;;-144.62;100.00;60556.56;5037796;27;45258;-74
2024/01/01 03:10:00;;;;;;;;;3.00;3.00;;;;;-144.62;100.00;60556.56;5040745;28;45236;-74
2024/01/01 03:12:27;;;;;;;;;3.67;2.67;;;;;-144.62;100.00;60556.56;5039304;28;45376;-74
2024/01/01 03:14:52;;;;;;;;;4.00;2.00;;;;;-144.62;100.00;60556.56;5039600;28;48149;-74
2024/01/01 03:17:18;;;;;;;;;3.67;2.67;;;;;-144.62;100.00;60556.56;5038227;28;45516;-73
2024/01/01 03:19:43;;;;;;;;;2.33;2.00;;;;;-144.62;100.00;60556.56;5041566;28;45764;-74
2024/01/01 03:22:08;;;;;;;;;7.00;2.00;;;;;-144.62;100.00;60556.56;5038624;28;45650;-74
2024/01/01 03:24:34;;;;;;;;;8.00;3.33;;;;;-144.62;100.00;60556.56;5043660;28;45609;-74
2024/01/01 03:26:59;;;;;;;;;6.67;2.00;;;;;-144.62;100.00;60556.56;5038379;27;45224;-74
2024/01/01 03:29:24;;;;;;;;;6.33;2.67;;;;;-144.62;100.00;60556.56;5035488;28;45323;-74
2024/01/01 03:31:49;;;;;;;;;7.00;2.33;;;;;-144.62;100.00;60556.56;5037431;28;45558;-74
2024/01/01 03:34:15;;;;;;;;;3.00;3.00;;;;;-144.62;100.00;60556.56;5036078;27;52317;-74
2024/01/01 03:36:40;;;;;;;;;3.00;1.00;;;;;-144.62;100.00;60556.56;5039518;28;45450;-74
2024/01/01 03:39:05;;;;;;;;;7.00;4.67;;;;;-144.62;100.00;60556.56;5036237;28;47199;-74
2024/01/01 03:41:31;;;;;;;;;8.00;4.00;;;;;-144.62;100.00;60556.56;5040051;27;45700;-74
2024/01/01 03:43:59;;;;;;;;;7.00;3.00;;;;;-144.62;100.00;60556.56;5033992;28;47072;-74
2024/01/01 03:46:24;;;;;;;;;3.67;2.67;;;;;-144.62;100.00;60556.56;5041080;28;45358;-74
2024/01/01 03:48:49;;;;;;;;;4.00;3.00;;;;;-144.62;100.00;60556.56;5033943;28;45289;-74
2024/01/01 03:51:15;;;;;;;;;3.00;2.00;;;;;-144.62;100.00;60556.56;5036555;28;45216;-73
2024/01/01 03:53:41;;;;;;;;;8.00;3.67;;;;;-144.62;100.00;60556.56;5030221;28;47117;-73
2024/01/01 03:56:06;;;;;;;;;3.00;2.00;;;;;-144.62;100.00;60556.56;5038845;27;45414;-73
2024/01/01 03:58:32;;;;;;;;;3.00;3.00;;;;;-144.62;100.00;60556.56;5036987;28;45484;-74
2024/01/01 04:00:57;;;;;;;;;6.67;3.00;;;;;-144.62;100.00;60556.56;5041117;28;45244;-74
2024/01/01 04:03:22;;;;;;;;;3.00;3.00;;;;;-144.62;100.00;60556.56;5033681;28;47109;-74
2024/01/01 04:05:48;;;;;;;;;3.33;1.67;;;;;-144.62;100.00;60556.56;5040259;28;45333;-74
2024/01/01 04:08:13;;;;;;;;;2.67;2.67;;;;;-144.62;100.00;60556.56;5037920;27;45630;-74
2024/01/01 04:10:38;;;;;;;;;7.00;3.00;;;;;-144.62;100.00;60556.56;5039825;28;45245;-74
2024/01/01 04:13:04;;;;;;;;;6.00;3.00;;;;;-144.62;100.00;60556.56;5036828;27;61139;-74
2024/01/01 04:15:29;;;;;;;;;5.00;2.67;;;;;-144.62;100.00;60556.56;5038164;28;48444;-74
2024/01/01 04:17:54;;;;;;;;;2.67;2.67;;;;;-144.62;100.00;60556.56;5036468;28;45511;-74
2024/01/01 04:20:19;;;;;;;;;3.00;2.67;;;;;-144.62;100.00;60556.56;5037818;28;45498;-75
2024/01/01 04:22:45;;;;;;;;;2.67;2.00;;;;;-144.62;100.00;60556.56;5034802;28;50979;-74
2024/01/01 04:25:11;;;;;;;;;2.00;2.00;;;;;-144.62;100.00;60556.56;5035570;28;45521;-74
2024/01/01 04:27:36;;;;;;;;;2.33;1.00;;;;;-144.62;100.00;60556.56;5037545;28;45512;-74
2024/01/01 04:30:04;;;;;;;;;1.67;1.00;;;;;-144.62;100.00;60556.56;5035824;28;45362;-74
2024/01/01 04:32:29;;;;;;;;;2.67;2.00;;;;;-144.62;100.00;60556.56;5038329;28;45740;-74
2024/01/01 04:34:55;;;;;;;;;3.00;2.00;;;;;-144.62;100.00;60556.56;5036340;27;45246;-74
2024/01/01 04:37:20;;;;;;;;;1.00;1.00;;;;;-144.62;100.00;60556.56;5036559;28;45174;-74
2024/01/01 04:39:45;;;;;;;;;5.00;1.67;;;;;-144.62;100.00;60556.56;5037249;28;45263;-74
2024/01/01 04:42:11;;;;;;;;;1.67;1.67;;;;;-144.62;100.00;60556.56;5035683;28;47901;-74
2024/01/01 04:44:36;;;;;;;;;5.33;3.00;;;;;-144.62;100.00;60556.56;5037452;28;45298;-74
2024/01/01 04:47:02;;;;;;;;;2.67;2.00;;;;;-144.62;100.00;60556.56;5037613;28;45620;-74
2024/01/01 04:49:27;;;;;;;;;2.33;1.67;;;;;-144.62;100.00;60556.56;5036126;28;45714;-74
2024/01/01 04:51:52;;;;;;;;;1.67;1.67;;;;;-144.62;100.00;60556.56;5022673;28;47473;-74
2024/01/01 04:54:18;;;;;;;;;3.00;1.00;;;;;-144.62;100.00;60556.56;5035365;28;45353;-74
2024/01/01 04:56:43;;;;;;;;;3.00;2.00;;;;;-144.62;100.00;60556.56;5037339;28;47521;-74
2024/01/01 04:59:09;;;;;;;;;1.33;1.00;;;;;-144.62;100.00;60556.56;5036486;28;45461;-74
2024/01/01 05:01:34;;;;;;;;;6.00;2.00;;;;;-144.62;100.00;60556.56;5038162;28;47085;-74
2024/01/01 05:03:59;;;;;;;;;2.00;1.00;;;;;-144.62;100.00;60556.56;5034785;28;54049;-75
2024/01/01 05:06:25;;;;;;;;;5.67;1.00;;;;;-144.62;100.00;60556.56;5040234;28;46460;-74
2024/01/01 05:08:50;;;;;;;;;2.33;1.00;;;;;-144.62;100.00;60556.56;5038081;27;45384;-73
2024/01/01 05:11:15;;;;;;;;;1.00;1.00;;;;;-144.62;100.00;60556.56;5040096;28;45441;-74
2024/01/01 05:13:41;;;;;;;;;5.33;4.00;;;;;-144.62;100.00;60556.56;5035973;28;45416;-74
2024/01/01 05:16:10;;;;;;;;;2.00;1.00;;;;;-144.62;100.00;60556.56;5040203;28;45410;-74
2024/01/01 05:18:35;;;;;;;;;4.00;3.00;;;;;-144.62;100.00;60556.56;5036840;28;45608;-74
2024/01/01 05:21:00;;;;;;;;;3.67;3.67;;;;;-144.62;100.00;60556.56;5038025;28;48471;-74
2024/01/01 05:23:26;;;;;;;;;7.00;3.00;;;;;-144.62;100.00;60556.56;5036618;28;45506;-74
2024/01/01 05:25:51;;;;;;;;;3.33;1.00;;;;;-144.62;100.00;60556.56;5038267;28;46448;-74
2024/01/01 05:28:16;;;;;;;;;3.00;1.00;;;;;-144.62;100.00;60556.56;5033978;27;45223;-74
2024/01/01 05:30:42;;;;;;;;;2.00;0.00;;;;;-144.62;100.00;60556.56;5039857;27;45464;-74
2024/01/01 05:33:07;;;;;;;;;0.67;0.00;;;;;-144.62;100.00;60556.56;5033831;28;52040;-74
2024/01/01 05:35:32;;;;;;;;;2.33;0.33;;;;;-144.62;100.00;60556.56;5039687;28;45223;-74
2024/01/01 05:37:58;;;;;;;;;0.00;0.00;;;;;-144.62;100.00;60556.56;5034916;27;45379;-74
2024/01/01 05:40:23;;;;;;;;;1.67;1.67;;;;;-144.62;100.00;60556.56;5039486;28;46068;-74
2024/01/01 05:42:48;;;;;;;;;2.00;0.67;;;;;-144.62;100.00;60556.56;5033389;27;45477;-74
2024/01/01 05:45:14;;;;;;;;;4.00;2.67;;;;;-144.62;100.00;60556.56;5039283;28;45390;-74
2024/01/01 05:47:39;;;;;;;;;3.00;2.00;;;;;-144.62;100.00;60556.56;5032622;28;45364;-74
2024/01/01 05:50:05;;;;;;;;;1.67;1.00;;;;;-144.62;100.00;60556.56;5039210;27;46365;-73
2024/01/01 05:52:30;;;;;;;;;5.33;1.67;;;;;-144.62;100.00;60556.56;5038747;28;45477;-74
2024/01/01 05:54:56;;;;;;;;;1.00;1.00;;;;;-144.62;100.00;60556.56;5042405;28;45336;-74
2024/01/01 05:57:21;;;;;;;;;3.00;1.33;;;;;-144.62;100.00;60556.56;5038612;28;45674;-74
2024/01/01 05:59:46;;;;;;;;;2.33;1.00;;;;;-144.62;100.00;60556.56;5041249;28;50155;-74
2024/01/01 06:02:12;;;;;;;;;0.67;0.67;;;;;-144.62;100.00;60556.56;5038120;28;45462;-74
2024/01/01 06:04:37;;;;;;;;;2.67;0.33;;;;;-144.62;100.00;60556.56;5041437;28;45460;-73
2024/01/01 06:07:02;;;;;;;;;1.00;1.00;;;;;-144.62;100.00;60556.56;5040511;28;45365;-74
2024/01/01 06:09:28;;;;;;;;;0.00;0.00;;;;;-144.62;100.00;60556.56;5041270;27;45415;-74
2024/01/01 06:11:53;;;;;;;;;2.00;0.67;;;;;-144.62;100.00;60556.56;5040341;28;45360;-74
2024/01/01 06:14:18;;;;;;;;;1.00;1.00;;;;;-144.62;100.00;60556.56;5039992;28;52697;-74
2024/01/01 06:16:44;;;;;;;;;8.33;2.00;;;;;-144.62;100.00;60556.56;5041452;28;45200;-74
2024/01/01 06:19:10;;;;;;;;;0.00;0.00;;;;;-144.62;100.00;60556.56;5040670;28;45529;-74
2024/01/01 06:21:35;;;;;;;;;1.00;1.00;;;;;-144.62;100.00;60556.56;5041845;28;45235;-74
2024/01/01 06:24:01;;;;;;;;;1.67;0.67;;;;;-144.62;100.00;60556.56;5041021;27;45433;-74
2024/01/01 06:26:26;;;;;;;;;6.00;2.00;;;;;-144.62;100.00;60556.56;5040882;28;45490;-74
2024/01/01 06:28:51;;;;;;;;;2.00;2.00;;;;;-144.62;100.00;60556.56;5034749;27;45796;-74
2024/01/01 06:31:17;;;;;;;;;1.00;1.00;;;;;-144.62;100.00;60556.56;5042406;27;45441;-74
2024/01/01 06:33:42;;;;;;;;;2.00;1.00;;;;;-144.62;100.00;60556.56;5036061;27;46454;-74
2024/01/01 06:36:09;;;;;;;;;3.33;1.00;;;;;-144.62;100.00;60556.56;5042856;28;45338;-74
2024/01/01 06:38:36;;;;;;;;;0.33;0.00;;;;;-144.62;100.00;60556.56;5034423;28;47657;-74
2024/01/01 06:41:01;;;;;;;;;3.00;2.00;;;;;-144.62;100.00;60556.56;5040582;28;45548;-74
2024/01/01 06:43:27;;;;;;;;;2.67;1.00;;;;;-144.62;100.00;60556.56;5036999;27;45996;-74
2024/01/01 06:45:52;;;;;;;;;2.33;1.00;;;;;-144.62;100.00;60556.56;5042446;28;45417;-74
2024/01/01 06:48:17;;;;;;;;;3.00;2.00;;;;;-144.62;100.00;60556.56;5033944;28;63887;-74
2024/01/01 06:50:43;;;;;;;;;1.00;1.00;;;;;-144.62;100.00;60556.56;5040743;28;45937;-74
2024/01/01 06:53:08;;;;;;;;;2.00;2.00;;;;;-144.62;100.00;60556.56;5036308;28;45400;-74
2024/01/01 06:55:34;;;;;;;;;2.67;1.67;;;;;-144.62;100.00;60556.56;5042250;28;45444;-74
2024/01/01 06:57:59;;;;;;;;;3.33;1.00;;;;;-144.62;100.00;60556.56;5036513;28;46688;-74
2024/01/01 07:00:24;;;;;;;;;6.00;1.67;;;;;-144.62;100.00;60556.56;5039945;28;45258;-74
2024/01/01 07:02:50;;;;;;;;;2.00;1.00;;;;;-144.62;100.00;60556.56;5037935;28;45306;-74
2024/01/01 07:05:15;;;;;;;;;1.00;1.00;;;;;-144.62;100.00;60556.56;5041939;28;45591;-74
2024/01/01 07:07:41;;;;;;;;;1.00;1.00;;;;;-144.62;100.00;60556.56;5038450;27;45499;-74
2024/01/01 07:10:06;;;;;;;;;3.67;1.00;;;;;-144.62;100.00;60556.56;5036575;28;45277;-74
2024/01/01 07:12:32;;;;;;;;;3.00;2.00;;;;;-144.62;100.00;60556.56;5037178;28;45408;-73
2024/01/01 07:14:57;;;;;;;;;0.67;0.67;;;;;-144.62;100.00;60556.56;5049966;28;45251;-73
2024/01/01 07:17:22;;;;;;;;;2.00;0.33;;;;;-144.62;100.00;60556.56;5039483;27;48344;-73
2024/01/01 07:19:48;;;;;;;;;6.33;1.00;;;;;-144.62;100.00;60556.56;5041286;28;49208;-74
2024/01/01 07:22:13;;;;;;;;;0.00;0.00;;;;;-144.62;100.00;60556.56;5038506;28;45949;-74
2024/01/01 07:24:39;;;;;;;;;3.00;1.00;;;;;-144.62;100.00;60556.56;5034847;28;45393;-74
2024/01/01 07:27:05;;;;;;;;;2.33;1.33;;;;;-144.62;100.00;60556.56;5039021;27;45315;-74
2024/01/01 07:29:31;;;;;;;;;6.67;3.00;;;;;-144.62;100.00;60556.56;5036810;27;45363;-74
2024/01/01 07:31:57;;;;;;;;;6.67;2.00;;;;;-144.62;100.00;60556.56;5038628;28;45408;-76
2024/01/01 07:34:24;;;;;;;;;2.33;2.33;;;;;-144.62;100.00;60556.56;5037284;28;45318;-74
2024/01/01 07:36:50;;;;;;;;;4.33;3.00;;;;;-144.62;100.00;60556.56;5040024;28;45425;-74
2024/01/01 07:39:19;;;;;;;;;1.00;1.00;;;;;-144.62;100.00;60556.56;5035605;27;45255;-74
2024/01/01 07:41:48;;;;;;;;;2.33;2.00;;;;;-144.62;100.00;60556.56;5039861;28;45413;-74
2024/01/01 07:44:14;;;;;;;;;7.00;2.00;;;;;-144.62;100.00;60556.56;5036978;28;45384;-75
2024/01/01 07:46:39;;;;;;;;;3.67;1.00;;;;;-144.62;100.00;60556.56;5040311;28;46221;-75
2024/01/01 07:49:06;;;;;;;;;0.67;0.67;;;;;-144.62;100.00;60556.56;5034529;28;45405;-74
2024/01/01 07:51:32;;;;;;;;;6.00;2.67;;;;;-144.62;100.00;60556.56;5041169;28;45135;-73
2024/01/01 07:53:57;;;;;;;;;6.00;3.00;;;;;-144.62;100.00;60556.56;5035754;28;45658;-75
2024/01/01 07:56:23;;;;;;;;;3.00;2.00;;;;;-144.62;100.00;60556.56;5039261;28;46929;-72
2024/01/01 07:58:49;;;;;;;;;7.00;1.00;;;;;-144.62;100.00;60556.56;5034160;28;45467;-75
2024/01/01 08:01:18;;;;;;;;;2.00;2.00;;;;;-144.62;100.00;60556.56;5039486;28;45291;-74
2024/01/01 08:03:43;;;;;;;;;10.33;3.00;;;;;-144.62;100.00;60556.56;5038222;28;45390;-74
2024/01/01 08:06:09;;;;;;;;;3.00;1.67;;;;;-144.62;100.00;60556.56;5037172;27;45916;-74
2024/01/01 08:08:34;;;;;;;;;4.00;2.67;;;;;-144.62;100.00;60556.56;5038429;27;45350;-74
2024/01/01 08:10:59;;;;;;;;;0.33;0.00;;;;;-144.62;100.00;60556.56;5039768;28;45212;-74
2024/01/01 08:13:25;;;;;;;;;1.67;1.33;;;;;-144.62;100.00;60556.56;5038578;28;45556;-74
2024/01/01 08:15:50;;;;;;;;;3.00;1.67;;;;;-144.62;100.00;60556.56;5040197;28;45704;-75
2024/01/01 08:18:16;;;;;;;;;2.00;2.00;;;;;-144.62;100.00;60556.56;5036169;28;45274;-74
2024/01/01 08:20:41;;;;;;;;;1.00;1.00;;;;;-144.62;100.00;60556.56;5040471;28;45211;-74
2024/01/01 08:23:07;;;;;;;;;3.00;1.00;;;;;-144.62;100.00;60556.56;5042456;28;45401;-74
2024/01/01 08:25:32;;;;;;;;;10.00;2.00;;;;;-144.62;100.00;60556.56;5058969;27;48070;-74
2024/01/01 08:27:58;;;;;;;;;2.33;1.00;;;;;-144.62;100.00;60556.56;5035845;28;56769;-74
2024/01/01 08:30:23;;;;;;;;;2.00;1.67;;;;;-144.62;100.00;60556.56;5035529;28;45548;-74
2024/01/01 08:32:49;;;;;;;;;2.00;2.00;;;;;-144.62;100.00;60556.56;5037481;28;45431;-74
2024/01/01 08:35:14;;;;;;;;;4.00;2.67;;;;;-144.62;100.00;60556.56;5038539;27;46687;-73
2024/01/01 08:37:42;;;;;;;;;4.00;1.00;;;;;-144.62;100.00;60556.56;5034942;28;45396;-74
2024/01/01 08:40:08;;;;;;;;;1.00;1.00;;;;;-144.62;100.00;60556.56;5040448;27;45494;-74
2024/01/01 08:42:34;;;;;;;;;2.67;1.67;;;;;-144.62;100.00;60556.56;5035061;28;45374;-74
2024/01/01 08:44:59;;;;;;;;;6.67;4.00;;;;;-144.62;100.00;60556.56;5039088;27;46453;-74
2024/01/01 08:47:24;;;;;;;;;4.67;3.33;;;;;-144.62;100.00;60556.56;5034642;28;45345;-74
2024/01/01 08:49:49;;;;;;;;;4.33;2.00;;;;;-144.62;100.00;60556.56;5039546;28;45505;-73
2024/01/01 08:52:15;;;;;;;;;3.00;1.33;;;;;-144.62;100.00;60556.56;5037612;28;45345;-73
2024/01/01 08:54:40;;;;;;;;;8.00;1.00;;;;;-144.62;100.00;60556.56;5038074;28;46816;-73
2024/01/01 08:57:05;;;;;;;;;1.00;1.00;;;;;-144.62;100.00;60556.56;5038123;28;45327;-74
2024/01/01 08:59:31;;;;;;;;;2.00;1.00;;;;;-144.62;100.00;60556.56;5036045;28;45276;-74
2024/01/01 09:01:56;;;;;;;;;3.33;1.67;;;;;-144.62;100.00;60556.56;5036972;28;45569;-74
2024/01/01 09:04:21;;;;;;;;;0.67;0.67;;;;;-144.62;100.00;60556.56;5034193;28;48143;-74
2024/01/01 09:06:47;;;;;;;;;2.33;1.00;;;;;-144.62;100.00;60556.56;5038613;28;48007;-74
2024/01/01 09:09:12;;;;;;;;;9.00;3.67;;;;;-144.62;100.00;60556.56;5038846;27;45344;-74
2024/01/01 09:11:37;;;;;;;;;3.33;1.67;;;;;-144.62;100.00;60556.56;5040514;28;45208;-73
2024/01/01 09:14:03;;;;;;;;;6.00;2.00;;;;;-144.62;100.00;60556.56;5035999;28;47223;-73
2024/01/01 09:16:29;;;;;;;;;4.00;2.00;;;;;-144.62;100.00;60556.56;5040303;28;45214;-73
2024/01/01 09:18:56;;;;;;;;;3.00;2.33;;;;;-144.62;100.00;60556.56;5036677;28;45517;-73
2024/01/01 09:21:24;;;;;;;;;6.67;2.67;;;;;-144.62;100.00;60556.56;5038111;28;45343;-74
2024/01/01 09:23:49;;;;;;;;;4.00;2.33;;;;;-144.62;100.00;60556.56;5033374;28;46941;-73
2024/01/01 09:26:15;;;;;;;;;1.00;1.00;;;;;-144.62;100.00;60556.56;5040348;27;45323;-75
2024/01/01 09:28:40;;;;;;;;;1.00;1.00;;;;;-144.62;100.00;60556.56;5030439;28;45694;-75
2024/01/01 09:31:05;;;;;;;;;6.33;5.00;;;;;-144.62;100.00;60556.56;5039904;28;45434;-74
2024/01/01 09:33:30;;;;;;;;;2.33;2.00;;;;;-144.62;100.00;60556.56;5033439;28;47719;-75
2024/01/01 09:35:56;;;;;;;;;2.00;1.00;;;;;-144.62;100.00;60556.56;5039508;28;45223;-72
2024/01/01 09:38:21;;;;;;;;;3.33;3.33;;;;;-144.62;100.00;60556.56;5032916;28;45244;-74
2024/01/01 09:40:47;;;;;;;;;1.00;1.00;;;;;-144.62;100.00;60556.56;5029888;28;45529;-74
2024/01/01 09:43:20;;;;;;;;;1.67;1.67;;;;;-144.62;100.00;60556.56;5029157;28;46488;-74
2024/01/01 09:45:48;;;;;;;;;1.67;1.67;;;;;-144.62;100.00;60556.56;5031833;28;45279;-74
2024/01/01 09:48:14;;;;;;;;;6.00;2.33;;;;;-144.62;100.00;60556.56;5026313;28;45396;-74
2024/01/01 09:50:39;;;;;;;;;2.00;1.00;;;;;-144.62;100.00;60556.56;5037023;28;45460;-74
2024/01/01 09:53:05;;;;;;;;;2.33;1.00;;;;;-144.62;100.00;60556.56;5046584;27;47977;-74
2024/01/01 09:55:31;;;;;;;;;2.33;2.33;;;;;-144.62;100.00;60556.56;5039541;28;45259;-74
2024/01/01 09:57:56;;;;;;;;;1.00;1.00;;;;;-144.62;100.00;60556.56;5033030;28;45604;-74
2024/01/01 10:00:22;;;;;;;;;3.33;1.33;;;;;-144.62;100.00;60556.56;5039693;28;45250;-74
2024/01/01 10:02:48;;;;;;;;;2.00;2.00;;;;;-144.62;100.00;60556.56;5032451;28;45633;-74
2024/01/01 10:05:15;;;;;;;;;1.00;1.00;;;;;-144.62;100.00;60556.56;5037058;28;45286;-74
2024/01/01 10:07:41;;;;;;;;;4.00;1.00;;;;;-144.62;100.00;60556.56;5032474;28;45302;-74
2024/01/01 10:10:07;;;;;;;;;3.00;3.00;;;;;-144.62;100.00;60556.56;5036027;28;45224;-74
2024/01/01 10:12:32;;;;;;;;;1.00;1.00;;;;;-144.62;100.00;60556.56;5033441;28;47344;-74
2024/01/01 10:14:58;;;;;;;;;2.00;0.67;;;;;-144.62;100.00;60556.56;5036528;28;45366;-73
2024/01/01 10:17:24;;;;;;;;;5.67;2.33;;;;;-144.62;100.00;60556.56;5075852;27;45562;-73
2024/01/01 10:19:56;;;;;;;;;5.00;1.33;;;;;-144.62;100.00;60556.56;5125963;27;45374;-74
2024/01/01 10:22:23;;;;;;;;;4.00;2.00;;;;;-144.62;100.00;60556.56;5037294;28;46681;-75
2024/01/01 10:24:52;;;;;;;;;2.00;2.00;;;;;-144.62;100.00;60556.56;5032871;28;44722;-74
2024/01/01 10:27:20;;;;;;;;;2.67;1.00;;;;;-144.62;100.00;60556.56;5034868;28;46510;-74
2024/01/01 10:29:49;;;;;;;;;2.00;1.00;;;;;-144.62;100.00;60556.56;5034234;28;45162;-73
2024/01/01 10:32:19;;;;;;;;;3.00;2.67;;;;;-144.62;100.00;60556.56;5034541;27;48000;-73
2024/01/01 10:34:46;;;;;;;;;1.33;1.33;;;;;-144.62;100.00;60556.56;5029528;28;45427;-73
2024/01/01 10:37:14;;;;;;;;;7.00;5.00;;;;;-144.62;100.00;60556.56;5039182;27;45257;-73
2024/01/01 10:39:40;;;;;;;;;6.33;2.00;;;;;-144.62;100.00;60556.56;5030689;28;45521;-73
2024/01/01 10:42:06;;;;;;;;;3.00;0.00;;;;;-144.62;100.00;60556.56;5036105;28;47396;-73
2024/01/01 10:44:31;;;;;;;;;2.00;2.00;;;;;-144.62;100.00;60556.56;5036809;28;45332;-73
2024/01/01 10:46:58;;;;;;;;;2.00;1.00;;;;;-144.62;100.00;60556.56;5039710;28;46202;-74
2024/01/01 10:49:30;;;;;;;;;4.00;2.67;;;;;-144.62;100.00;60556.56;5036643;28;45614;-73
2024/01/01 10:52:12;;;;;;;;;10.00;2.00;;;;;-144.62;100.00;60556.56;5039330;28;45372;-73
2024/01/01 10:54:56;;;;;;;;;4.33;3.67;;;;;-144.62;100.00;60556.56;5038363;28;45352;-73
2024/01/01 10:57:33;;;;;;;;;1.00;1.00;;;;;-144.62;100.00;60556.56;5036494;27;45462;-72
2024/01/01 11:00:08;;;;;;;;;3.00;3.00;;;;;-144.62;100.00;60556.56;5035639;28;45489;-73
2024/01/01 11:02:34;;;;;;;;;8.00;2.00;;;;;-144.62;100.00;60556.56;5034071;28;46185;-73